AirNav   Pilot Hours Calculator
 
 558 users online  

12J Brewton Municipal Airport
Brewton, Alabama, USA

GOING TO BREWTON?


FAA INFORMATION EFFECTIVE 02 JANUARY 2020

Location

FAA Identifier: 12J
Lat/Long: 31-03-03.0000N 087-03-57.5000W
31-03.050000N 087-03.958333W
31.0508333,-87.0659722
(estimated)
Elevation: 98.7 ft. / 30.1 m (surveyed)
Variation: 01W (2000)
From city: 3 miles S of BREWTON, AL
Time zone: UTC -6 (UTC -5 during Daylight Saving Time)
Zip code: 36426

Airport Operations

Airport use: Open to the public
Activation date: 06/1944
Control tower: no
ARTCC: JACKSONVILLE CENTER
FSS: ANNISTON FLIGHT SERVICE STATION
NOTAMs facility: ANB (NOTAM-D service available)
Attendance: MON-FRI 0730-1700, ALL SAT 0830-1700
AFTER HRS CALL 251-867-9997.
Wind indicator: lighted
Segmented circle: yes
Lights: ACTVT PAPI RWY 12 & 30; MIRL RWY 12/30 - CTAF.
Beacon: white-green (lighted land airport)
Operates sunset to sunrise.

Airport Communications

CTAF/UNICOM: 122.725
WX AWOS-3PT: 119.325 (251-809-2987)
PENSACOLA APPROACH: 127.35
PENSACOLA DEPARTURE: 127.35
WX ASOS at NSE (20 nm S): PHONE 850-623-7241

Nearby radio navigation aids

VOR radial/distance  VOR name  Freq  Var
CEWr301/24.0CRESTVIEW VORTAC115.9003E
MVCr145/28.6MONROEVILLE VORTAC116.8004E
NUNr021/(37.4)SAUFLEY VOR108.8001E

 
NDB name  Hdg/Dist  Freq  Var  ID
PICKENS011/37.332602WPKZ .--. -.- --..
JUDD248/37.926402WJUY .--- ..- -.--

Airport Services

Fuel available: 100LL JET-A+
Parking: hangars and tiedowns
Airframe service: MAJOR
Powerplant service: MAJOR
Bottled oxygen: NONE
Bulk oxygen: NONE

Runway Information

Runway 6/24

Dimensions: 5136 x 150 ft. / 1565 x 46 m
Surface: asphalt, in fair condition
Weight bearing capacity: 
Single wheel: 40.0
Double wheel: 60.0
Operational restrictions: MARKINGS FADED.
RUNWAY 6  RUNWAY 24
Latitude: 31-02.998458N31-03.384532N
Longitude: 087-04.547052W087-03.671163W
Elevation: 80.9 ft.83.3 ft.
Traffic pattern: leftleft
Runway heading: 064 magnetic, 063 true244 magnetic, 243 true
Markings: nonprecision, in fair conditionnonprecision, in fair condition
Touchdown point: yes, no lightsyes, no lights
Obstructions: 6 ft. tree, 245 ft. from runway, 17 ft. left of centerline, 6:1 slope to clear91 ft. trees, 1279 ft. from runway, 175 ft. right of centerline, 11:1 slope to clear

Runway 12/30

Dimensions: 5001 x 150 ft. / 1524 x 46 m
Surface: asphalt, in fair condition
Weight bearing capacity: 
Single wheel: 40.0
Double wheel: 60.0
Runway edge lights: medium intensity
Runway edge markings: FIXED DISTANCE MARKER 500 FT FROM RWY END.
Operational restrictions: MARKINGS FADED.
RUNWAY 12  RUNWAY 30
Latitude: 31-03.095263N31-02.684428N
Longitude: 087-04.376372W087-03.545480W
Elevation: 81.9 ft.98.7 ft.
Traffic pattern: leftleft
Runway heading: 121 magnetic, 120 true301 magnetic, 300 true
Markings: nonprecision, in fair conditionnonprecision, in fair condition
Visual slope indicator: 2-light PAPI on left (3.00 degrees glide path)2-light PAPI on left (3.00 degrees glide path)
Touchdown point: yes, no lightsyes, no lights
Obstructions: 59 ft. trees, 1272 ft. from runway, 88 ft. left of centerline, 18:1 slope to clear
7 FT TREE LOCATED 150' FROM PAVEMENT END RWY 12 7' RIGHT OF CENTERLINE.
7 ft. tree, 222 ft. from runway, 15 ft. right of centerline, 3:1 slope to clear

Airport Ownership and Management from official FAA records

Ownership: Publicly-owned
Owner: CITY OF BREWTON
PO BOX 368
BREWTON, AL 36427
Phone 251-867-3281
Manager: EARL LAMBERT
205 AIRPORT DRIVE
BREWTON, AL 36426
Phone 251-867-9997

Airport Operational Statistics

Aircraft based on the field: 28
Single engine airplanes: 18
Multi engine airplanes: 3
Helicopters: 7
    
Aircraft operations: avg 453/day *
91% military
4% transient general aviation
4% local general aviation
1% air taxi
* for 12-month period ending 30 June 2020

Additional Remarks

MIL TRNG ACFT MONTR UNICOM AND YIELD TO ALL CIV OPNS.
USN PILOT TRNG FM WHITING FLD.
MIL ACFT RQR PRIOR CDN WITH NAS WHITING FLD, DSN 868-7654, C850-623-7645.
FOR CD CTC PENSACOLA APCH AT 850-266-6884 OR 850-266-6885.

Instrument Procedures

NOTE: All procedures below are presented as PDF files. If you need a reader for these files, you should download the free Adobe Reader.

NOT FOR NAVIGATION. Please procure official charts for flight.
FAA instrument procedures published for use from 02 January 2020 at 0901Z to 30 January 2020 at 0900Z.

 
IAPs - Instrument Approach Procedures
RNAV (GPS) RWY 06   download (161KB)
RNAV (GPS) RWY 12   download (219KB)
RNAV (GPS) RWY 24   download (167KB)
RNAV (GPS) RWY 30   download (224KB)
VOR/DME RWY 30   download (195KB)
NOTE: Special Take-Off Minimums/Departure Procedures apply   download (189KB)

Other nearby airports with instrument procedures:

0R1 - Atmore Municipal Airport (20 nm W)
KNSE - Whiting Field Naval Air Station North (20 nm S)
KNDZ - Whiting Field Naval Air Station South (21 nm S)
KGZH - Evergreen Regional Airport/Middleton Field (22 nm N)
2R4 - Peter Prince Field Airport (25 nm S)
 
Loc | Ops | Rwys | IFR | FBO | Links
Com | Nav | Svcs | Stats | Notes

Continental Services
AirBoss

 
Area around 12J (Brewton Municipal Airport)
 
Road maps at: MapQuest Bing Google
 
Aerial photo
WARNING: Photo may not be current or correct
Aerial photo of 12J (Brewton Municipal Airport)
Photo by Ryan Hegerty, 11-Jan-2004

Do you have a better or more recent aerial photo of Brewton Municipal Airport that you would like to share? If so, please send us your photo.

 
Sectional chart

 
Airport distance calculator
Flying to Brewton Municipal Airport? Find the distance to fly.

From to 12J

Sunrise and sunset
Times for 20-Jan-2020
 Local
(UTC-6)
 Zulu
(UTC)
Morning civil twilight06:2112:21
Sunrise06:4712:47
Sunset17:1223:12
Evening civil twilight17:3823:38

Current date and time
Zulu (UTC)  20-Jan-2020 09:42:19
Local (UTC-6)  20-Jan-2020 03:42:19
 
METAR
KNDZ 
21nm S 
200256Z 33006KT 10SM FEW250 06/M04 A3032 RMK SLP255 LAST 6//// T00561044 51016 PNO
KGZH 
22nm N 
200853Z AUTO 34004KT 10SM CLR 02/M07 A3033 RMK AO2 SLP269 T00221067 56002
KCEW 
33nm SE 
200853Z AUTO 35006KT 10SM CLR 03/M06 A3031 RMK AO2 SLP265 T00281056 56003
KPNS 
35nm S 
200853Z AUTO 34012G18KT 10SM CLR 04/M06 A3031 RMK AO2 SLP266 T00441056 57005
K79J 
38nm NE 
200856Z AUTO 33009KT 10SM CLR 03/M06 A3030 RMK AO2 SLP258 T00331056 56003 $
KEGI 
38nm SE 
200856Z AUTO 34007KT 10SM CLR 03/M05 A3029 RMK AO2 SLP259 T00251052 56004 $
K0J4 
39nm E 
200858Z AUTO 35004KT 10SM CLR 02/M06 A3032 RMK AO2 SLP265 T00221056 55001
TAF
KNSE 
20nm S 
2007/2107 34010KT 9999 SKC QNH3023INS AUTOMATED SENSOR METWATCH 2007 TIL 2112 T01/2012Z T07/2020Z FN00214
NOTAMs
Click for the latest NOTAMs
NOTAMs are issued by the DoD/FAA and will open in a separate window not controlled by AirNav.

 

 
 

Would you like to see your business listed on this page?

 If your business provides an interesting product or service to pilots, flight crews, aircraft, or users of the Brewton Municipal Airport, you should consider listing it here.  To start the listing process, click on the button below
 
Add a business
 

Other Pages about Brewton Municipal Airport

www.brewtonchamber.com/Resources.htm#airport
 
Update a link
 
Copyright © AirNav, LLC. All rights reserved. Privacy Policy  Contact